Time;durP1;ratioP1;P1;durP2;ratioP2;P2;SDS_P1;SDS_P2;PMS_P1;PMS_P2;Temp;Humidity;BMP_temperature;BMP_pressure;BME280_temperature;BME280_humidity;BME280_pressure;Samples;Min_cycle;Max_cycle;Signal;HPM_P1;HPM_P2
2023/02/03 00:02:19;;;;;;;1.13;0.90;;;10.10;61.90;;;;;;5030291;28;20440;-62
2023/02/03 00:04:45;;;;;;;2.53;1.10;;;10.30;61.40;;;;;;5031707;28;20242;-62
2023/02/03 00:07:12;;;;;;;1.90;0.90;;;10.40;61.10;;;;;;5031149;28;20189;-62
2023/02/03 00:09:38;;;;;;;0.70;0.70;;;10.30;61.10;;;;;;5030381;28;20212;-62
2023/02/03 00:12:04;;;;;;;1.90;0.90;;;10.10;61.60;;;;;;5026430;28;20818;-62
2023/02/03 00:14:29;;;;;;;1.20;1.10;;;10.20;61.80;;;;;;5027151;28;20216;-62
2023/02/03 00:16:55;;;;;;;1.10;1.00;;;10.30;61.50;;;;;;5033439;28;20424;-62
2023/02/03 00:19:21;;;;;;;1.60;1.13;;;10.30;61.40;;;;;;5032352;28;20284;-62
2023/02/03 00:21:46;;;;;;;1.27;0.80;;;10.30;61.10;;;;;;5029471;28;20193;-62
2023/02/03 00:24:12;;;;;;;2.10;0.93;;;10.30;61.00;;;;;;5032593;28;20228;-63
2023/02/03 00:26:43;;;;;;;1.37;0.90;;;10.60;61.20;;;;;;5031325;28;20345;-62
2023/02/03 00:29:09;;;;;;;1.00;0.90;;;10.40;60.60;;;;;;5030284;28;20440;-62
2023/02/03 00:31:35;;;;;;;1.10;0.70;;;10.40;61.10;;;;;;5026913;28;20529;-62
2023/02/03 00:34:02;;;;;;;0.83;0.80;;;10.40;60.90;;;;;;5031115;28;20486;-62
2023/02/03 00:36:28;;;;;;;1.60;0.80;;;10.40;61.10;;;;;;5032152;28;20456;-62
2023/02/03 00:38:53;;;;;;;10.50;6.33;;;10.40;60.70;;;;;;5031963;28;20197;-62
2023/02/03 00:41:20;;;;;;;1.50;1.37;;;10.50;61.00;;;;;;5030429;28;20201;-62
2023/02/03 00:43:46;;;;;;;0.97;0.90;;;10.50;60.60;;;;;;5031907;28;20224;-62
2023/02/03 00:46:12;;;;;;;1.10;0.87;;;10.40;60.90;;;;;;5025026;28;21007;-62
2023/02/03 00:48:38;;;;;;;1.80;0.83;;;10.40;61.10;;;;;;5030270;28;20527;-62
2023/02/03 00:51:04;;;;;;;1.43;0.70;;;10.40;61.10;;;;;;5024768;28;20460;-62
2023/02/03 00:53:29;;;;;;;1.43;0.93;;;10.30;61.50;;;;;;5021259;28;20243;-62
2023/02/03 00:55:55;;;;;;;0.83;0.80;;;10.60;61.00;;;;;;5019996;28;20432;-62
2023/02/03 00:58:21;;;;;;;0.73;0.60;;;10.70;60.20;;;;;;5029584;28;20194;-62
2023/02/03 01:00:46;;;;;;;1.03;0.93;;;10.60;60.10;;;;;;5031257;28;20216;-62
2023/02/03 01:03:12;;;;;;;1.43;1.10;;;10.80;59.90;;;;;;5028174;28;20256;-62
2023/02/03 01:05:37;;;;;;;0.80;0.80;;;10.90;59.60;;;;;;5030030;28;20260;-62
2023/02/03 01:08:03;;;;;;;0.80;0.80;;;10.70;60.10;;;;;;5029403;28;20220;-62
2023/02/03 01:10:29;;;;;;;0.70;0.70;;;10.50;60.30;;;;;;5023302;28;20197;-62
2023/02/03 01:12:55;;;;;;;1.73;0.90;;;10.30;60.80;;;;;;5025238;28;21921;-62
2023/02/03 01:15:20;;;;;;;1.40;0.97;;;10.30;60.80;;;;;;5027226;28;20499;-62
2023/02/03 01:17:46;;;;;;;0.77;0.77;;;10.30;61.60;;;;;;5023878;28;20206;-62
2023/02/03 01:20:12;;;;;;;1.10;0.90;;;10.10;61.80;;;;;;5029209;28;20193;-62
2023/02/03 01:22:38;;;;;;;1.73;1.10;;;10.10;62.20;;;;;;5028023;28;20561;-62
2023/02/03 01:25:05;;;;;;;0.80;0.80;;;10.10;62.40;;;;;;5028372;28;20440;-62
2023/02/03 01:27:32;;;;;;;2.00;0.93;;;10.20;62.30;;;;;;5028583;28;20530;-62
2023/02/03 01:29:57;;;;;;;2.33;1.20;;;10.20;62.40;;;;;;5028795;28;20818;-62
2023/02/03 01:32:23;;;;;;;1.53;1.07;;;10.10;62.90;;;;;;5028887;28;20472;-62
2023/02/03 01:34:49;;;;;;;3.90;1.10;;;10.00;62.50;;;;;;5030500;28;20193;-62
2023/02/03 01:37:16;;;;;;;2.07;1.00;;;10.10;62.80;;;;;;5028810;28;20444;-62
2023/02/03 01:39:42;;;;;;;2.00;1.07;;;10.10;62.70;;;;;;5029969;28;20194;-62
2023/02/03 01:42:12;;;;;;;1.30;1.00;;;9.90;64.00;;;;;;5029546;28;20864;-62
2023/02/03 01:44:41;;;;;;;2.73;1.10;;;9.60;65.10;;;;;;5023251;28;20530;-62
2023/02/03 01:47:23;;;;;;;2.00;1.20;;;9.50;66.10;;;;;;5027641;28;20447;-62
2023/02/03 01:50:10;;;;;;;1.47;1.37;;;9.50;66.50;;;;;;5027323;28;20439;-62
2023/02/03 01:52:39;;;;;;;3.47;1.13;;;9.70;66.20;;;;;;5027700;28;20555;-62
2023/02/03 01:55:09;;;;;;;2.40;1.30;;;9.70;65.50;;;;;;5024068;28;20439;-62
2023/02/03 01:58:01;;;;;;;1.17;1.07;;;9.60;65.70;;;;;;5028258;28;20811;-62
2023/02/03 02:00:26;;;;;;;2.27;1.40;;;9.70;66.00;;;;;;5024449;28;20973;-62
2023/02/03 02:02:53;;;;;;;1.50;1.10;;;9.80;65.70;;;;;;5030071;28;20480;-62
2023/02/03 02:05:54;;;;;;;1.57;1.10;;;9.80;65.40;;;;;;5029465;28;20200;-62
2023/02/03 02:08:22;;;;;;;1.83;1.00;;;9.90;65.20;;;;;;5043406;28;21187;-62
2023/02/03 02:10:47;;;;;;;3.80;1.40;;;9.70;65.30;;;;;;5027588;28;20799;-63
2023/02/03 02:13:14;;;;;;;4.20;0.90;;;9.50;65.90;;;;;;5024993;28;20450;-62
2023/02/03 02:16:23;;;;;;;1.10;1.10;;;9.70;66.00;;;;;;5029681;28;20645;-62
2023/02/03 02:19:35;;;;;;;1.10;1.00;;;9.70;66.00;;;;;;5030499;28;20442;-62
2023/02/03 02:22:10;;;;;;;2.10;1.70;;;9.60;66.30;;;;;;5025786;28;20452;-62
2023/02/03 02:24:56;;;;;;;1.57;0.97;;;9.50;66.20;;;;;;5018545;28;20581;-62
2023/02/03 02:27:30;;;;;;;2.40;1.53;;;9.70;66.40;;;;;;5026697;28;20546;-62
2023/02/03 02:30:08;;;;;;;1.97;1.37;;;9.80;65.60;;;;;;5023796;28;20876;-62
2023/02/03 02:32:45;;;;;;;1.73;1.63;;;9.70;65.90;;;;;;5027188;28;20633;-62
2023/02/03 02:35:38;;;;;;;1.20;1.10;;;9.80;65.80;;;;;;5026510;28;20876;-62
2023/02/03 02:38:12;;;;;;;3.77;2.60;;;9.70;65.80;;;;;;5031147;28;20455;-62
2023/02/03 02:40:59;;;;;;;1.30;1.20;;;9.70;66.10;;;;;;5025747;28;20865;-62
2023/02/03 02:43:37;;;;;;;1.57;1.27;;;9.80;65.90;;;;;;5027793;28;20487;-62
2023/02/03 02:46:11;;;;;;;1.93;1.43;;;9.70;65.70;;;;;;5023437;28;20436;-62
2023/02/03 02:48:56;;;;;;;1.73;1.20;;;9.80;65.60;;;;;;5027281;28;20459;-62
2023/02/03 02:51:23;;;;;;;7.63;1.70;;;10.00;64.50;;;;;;5019278;28;20440;-62
2023/02/03 02:53:54;;;;;;;2.23;1.30;;;10.20;64.00;;;;;;5018396;28;20509;-62
2023/02/03 02:56:20;;;;;;;1.53;1.20;;;10.30;63.40;;;;;;5026316;28;20502;-62
2023/02/03 02:58:48;;;;;;;1.23;1.00;;;10.10;63.00;;;;;;5023623;28;20444;-62
2023/02/03 03:01:15;;;;;;;1.47;1.17;;;10.10;62.80;;;;;;5025746;28;20439;-62
2023/02/03 03:03:43;;;;;;;1.93;1.20;;;10.20;63.10;;;;;;5026289;28;20495;-63
2023/02/03 03:06:17;;;;;;;2.00;1.20;;;10.40;62.70;;;;;;5029038;28;20523;-63
2023/02/03 03:09:10;;;;;;;1.20;1.10;;;10.20;62.60;;;;;;5032331;28;20463;-62
2023/02/03 03:11:58;;;;;;;2.00;1.07;;;10.10;63.40;;;;;;5020263;28;20451;-63
2023/02/03 03:14:28;;;;;;;1.60;1.23;;;10.30;63.40;;;;;;5025424;28;20451;-62
2023/02/03 03:17:00;;;;;;;1.80;1.30;;;10.40;62.80;;;;;;5031702;28;20516;-62
2023/02/03 03:19:33;;;;;;;1.67;1.13;;;10.10;62.90;;;;;;5033362;28;20590;-62
2023/02/03 03:22:03;;;;;;;1.40;1.30;;;9.90;65.00;;;;;;5030857;28;20478;-62
2023/02/03 03:24:37;;;;;;;2.70;1.10;;;10.00;64.10;;;;;;5031904;28;20552;-62
2023/02/03 03:27:13;;;;;;;2.10;1.10;;;9.90;65.40;;;;;;5029711;28;20443;-62
2023/02/03 03:29:44;;;;;;;1.50;0.80;;;10.10;64.10;;;;;;5026733;28;20496;-62
2023/02/03 03:32:10;;;;;;;1.67;1.17;;;10.00;63.80;;;;;;5031257;28;20514;-62
2023/02/03 03:34:35;;;;;;;1.33;1.13;;;9.80;65.50;;;;;;5031220;28;20950;-62
2023/02/03 03:37:22;;;;;;;1.47;1.03;;;10.00;64.30;;;;;;5029522;28;20190;-62
2023/02/03 03:39:55;;;;;;;1.87;0.87;;;10.20;63.80;;;;;;5031785;28;20527;-62
2023/02/03 03:42:36;;;;;;;3.10;1.10;;;10.30;63.10;;;;;;5031913;28;20455;-62
2023/02/03 03:45:26;;;;;;;1.27;0.90;;;10.60;62.50;;;;;;5033121;28;20471;-62
2023/02/03 03:48:00;;;;;;;3.03;1.20;;;10.80;61.90;;;;;;5029537;28;20535;-62
2023/02/03 03:50:30;;;;;;;1.43;1.30;;;11.00;60.50;;;;;;5028869;28;20458;-62
2023/02/03 03:52:59;;;;;;;1.90;1.10;;;10.60;60.40;;;;;;5027703;28;20440;-62
2023/02/03 03:55:28;;;;;;;1.40;1.00;;;10.80;60.90;;;;;;5018945;28;20436;-62
2023/02/03 03:58:00;;;;;;;1.53;0.97;;;10.90;60.70;;;;;;5031788;28;20529;-62
2023/02/03 04:00:29;;;;;;;4.00;1.00;;;11.00;60.10;;;;;;5025218;28;20821;-62
2023/02/03 04:02:58;;;;;;;1.80;0.80;;;10.80;60.30;;;;;;5030344;28;20471;-62
2023/02/03 04:05:25;;;;;;;2.43;1.20;;;11.00;60.20;;;;;;5031868;28;20448;-62
2023/02/03 04:07:51;;;;;;;1.77;1.20;;;11.00;59.90;;;;;;5031597;28;20444;-62
2023/02/03 04:10:24;;;;;;;1.93;1.30;;;11.00;59.90;;;;;;5031602;28;20436;-63
2023/02/03 04:12:49;;;;;;;1.00;0.83;;;11.30;59.50;;;;;;5032192;28;20207;-63
2023/02/03 04:15:15;;;;;;;1.00;0.90;;;11.30;59.30;;;;;;5026268;28;20444;-62
2023/02/03 04:17:40;;;;;;;1.77;1.40;;;11.20;59.30;;;;;;5027758;28;20201;-62
2023/02/03 04:20:06;;;;;;;1.20;1.10;;;11.40;59.30;;;;;;5030366;28;20197;-63
2023/02/03 04:22:32;;;;;;;1.20;1.10;;;11.30;59.10;;;;;;5029544;28;20243;-62
2023/02/03 04:24:58;;;;;;;2.23;1.03;;;11.20;59.70;;;;;;5032504;28;20244;-62
2023/02/03 04:27:24;;;;;;;1.00;0.90;;;11.20;60.30;;;;;;5030333;28;20194;-62
2023/02/03 04:29:50;;;;;;;1.13;1.03;;;11.30;60.70;;;;;;5030690;28;20616;-62
2023/02/03 04:32:16;;;;;;;1.67;1.07;;;11.30;60.80;;;;;;5026257;28;20495;-62
2023/02/03 04:34:41;;;;;;;3.07;1.00;;;11.20;61.30;;;;;;5031408;28;20189;-62
2023/02/03 04:37:07;;;;;;;1.47;1.27;;;11.10;61.80;;;;;;5030987;28;20558;-62
2023/02/03 04:39:32;;;;;;;1.17;0.93;;;11.00;62.40;;;;;;5031985;28;20255;-62
2023/02/03 04:41:58;;;;;;;1.10;0.80;;;11.10;62.90;;;;;;5027787;28;20213;-62
2023/02/03 04:44:23;;;;;;;1.13;1.03;;;11.20;62.90;;;;;;5029803;28;20295;-63
2023/02/03 04:46:49;;;;;;;2.23;0.90;;;11.10;62.80;;;;;;5031041;28;20684;-61
2023/02/03 04:49:16;;;;;;;1.10;1.00;;;10.90;63.30;;;;;;5031777;28;20672;-62
2023/02/03 04:51:43;;;;;;;1.00;0.90;;;10.60;64.10;;;;;;5030741;28;20240;-61
2023/02/03 04:54:09;;;;;;;1.43;0.90;;;10.30;65.50;;;;;;5031723;28;20448;-61
2023/02/03 04:56:35;;;;;;;1.20;1.00;;;10.40;66.30;;;;;;5030255;28;20440;-61
2023/02/03 04:59:01;;;;;;;2.40;0.97;;;10.40;66.60;;;;;;5029789;28;20491;-61
2023/02/03 05:01:26;;;;;;;0.80;0.80;;;10.20;66.90;;;;;;5029626;28;20792;-61
2023/02/03 05:03:52;;;;;;;1.37;0.70;;;9.90;69.30;;;;;;5021494;28;20225;-62
2023/02/03 05:06:23;;;;;;;2.80;1.10;;;10.00;68.40;;;;;;5028088;28;20236;-62
2023/02/03 05:08:48;;;;;;;0.80;0.80;;;9.90;69.90;;;;;;5032399;28;20657;-61
2023/02/03 05:11:14;;;;;;;1.20;1.10;;;9.80;70.10;;;;;;5032592;28;20420;-61
2023/02/03 05:13:39;;;;;;;1.30;0.87;;;10.00;68.90;;;;;;5025095;28;20272;-62
2023/02/03 05:16:05;;;;;;;0.90;0.90;;;10.20;68.30;;;;;;5029137;28;20201;-62
2023/02/03 05:18:31;;;;;;;3.50;1.00;;;10.30;68.00;;;;;;5030912;28;20202;-62
2023/02/03 05:20:57;;;;;;;3.30;1.13;;;10.40;67.90;;;;;;5024257;28;20935;-62
2023/02/03 05:23:22;;;;;;;0.90;0.80;;;10.50;67.60;;;;;;5024106;28;20283;-62
2023/02/03 05:25:48;;;;;;;6.53;0.97;;;10.40;67.10;;;;;;5028329;28;20193;-62
2023/02/03 05:28:14;;;;;;;1.80;0.80;;;10.40;67.50;;;;;;5027725;28;20225;-62
2023/02/03 05:30:40;;;;;;;0.90;0.80;;;10.30;67.50;;;;;;5031619;28;20189;-62
2023/02/03 05:33:05;;;;;;;0.80;0.80;;;10.30;67.60;;;;;;5027650;28;20264;-62
2023/02/03 05:35:31;;;;;;;1.10;1.00;;;10.30;67.40;;;;;;5027504;28;21033;-62
2023/02/03 05:37:58;;;;;;;4.23;1.30;;;10.30;67.90;;;;;;5028941;28;20864;-62
2023/02/03 05:43:08;;;;;;;2.00;1.40;;;10.20;68.60;;;;;;5028915;28;20575;-62
2023/02/03 05:45:34;;;;;;;3.70;1.50;;;10.30;68.70;;;;;;5030148;28;20522;-61
2023/02/03 05:48:03;;;;;;;3.17;1.27;;;10.10;68.80;;;;;;5029074;28;20225;-61
2023/02/03 05:50:32;;;;;;;2.40;1.30;;;10.10;69.10;;;;;;5024000;28;20851;-62
2023/02/03 05:52:59;;;;;;;2.30;1.30;;;10.10;69.30;;;;;;5029228;28;20442;-61
2023/02/03 05:55:25;;;;;;;1.80;1.17;;;10.00;69.20;;;;;;5029253;28;20881;-62
2023/02/03 05:57:51;;;;;;;1.43;1.10;;;10.00;69.20;;;;;;5029477;28;20858;-62
2023/02/03 06:00:16;;;;;;;3.80;1.00;;;9.90;70.50;;;;;;5029321;28;20447;-62
2023/02/03 06:02:42;;;;;;;1.53;0.90;;;9.80;70.40;;;;;;5029602;28;20269;-62
2023/02/03 06:05:08;;;;;;;1.17;1.00;;;10.00;69.20;;;;;;5020026;28;20433;-62
2023/02/03 06:07:34;;;;;;;2.00;1.37;;;10.10;68.80;;;;;;5026841;28;20193;-62
2023/02/03 06:09:59;;;;;;;3.53;2.03;;;10.00;69.10;;;;;;5028640;28;20616;-62
2023/02/03 06:12:25;;;;;;;2.13;1.80;;;10.10;68.70;;;;;;5024428;28;20448;-62
2023/02/03 06:14:50;;;;;;;1.80;1.50;;;10.30;68.50;;;;;;5021792;28;20189;-62
2023/02/03 06:17:16;;;;;;;5.13;1.83;;;10.20;68.20;;;;;;5030496;28;20189;-62
2023/02/03 06:19:42;;;;;;;1.30;1.20;;;10.10;68.60;;;;;;5029628;28;20209;-62
2023/02/03 06:22:07;;;;;;;2.13;1.17;;;10.30;68.00;;;;;;5023456;28;20802;-62
2023/02/03 06:24:33;;;;;;;0.80;0.80;;;10.50;67.30;;;;;;5026425;28;20324;-62
2023/02/03 06:26:58;;;;;;;2.30;1.37;;;10.70;66.60;;;;;;5020514;28;20197;-62
2023/02/03 06:29:24;;;;;;;1.40;1.30;;;10.90;65.90;;;;;;5027809;28;22260;-62
2023/02/03 06:31:49;;;;;;;1.63;1.53;;;10.80;65.00;;;;;;5025212;28;20241;-62
2023/02/03 06:34:15;;;;;;;1.80;1.13;;;10.80;65.20;;;;;;5019642;28;20201;-62
2023/02/03 06:36:40;;;;;;;4.13;1.67;;;10.70;65.30;;;;;;5023397;28;20189;-62
2023/02/03 06:39:06;;;;;;;2.70;1.57;;;10.80;65.60;;;;;;5024139;28;20196;-63
2023/02/03 06:41:32;;;;;;;3.23;2.03;;;10.80;65.80;;;;;;5023546;28;20277;-62
2023/02/03 06:43:57;;;;;;;5.20;1.73;;;11.00;65.60;;;;;;5024390;28;20220;-62
2023/02/03 06:46:28;;;;;;;1.57;1.40;;;10.90;65.50;;;;;;5032612;28;20300;-62
2023/02/03 06:48:53;;;;;;;3.30;2.53;;;11.00;65.20;;;;;;5024968;28;20728;-62
2023/02/03 06:51:19;;;;;;;2.40;1.43;;;10.90;65.00;;;;;;5021331;28;20451;-62
2023/02/03 06:53:45;;;;;;;1.43;1.30;;;10.60;65.60;;;;;;5029815;28;20659;-62
2023/02/03 06:56:10;;;;;;;1.27;1.17;;;10.60;66.10;;;;;;5030177;28;20193;-62
2023/02/03 06:58:36;;;;;;;1.70;1.50;;;10.60;66.20;;;;;;5029969;28;20272;-62
2023/02/03 07:01:01;;;;;;;1.10;1.00;;;10.50;67.00;;;;;;5029179;28;20557;-62
2023/02/03 07:03:27;;;;;;;2.50;1.40;;;10.40;66.70;;;;;;5028068;28;20311;-62
2023/02/03 07:05:52;;;;;;;2.03;1.30;;;10.10;67.40;;;;;;5026142;28;20718;-62
2023/02/03 07:08:18;;;;;;;1.73;1.13;;;9.90;69.70;;;;;;5028911;28;20193;-62
2023/02/03 07:10:44;;;;;;;2.07;1.87;;;10.00;68.50;;;;;;5029944;28;20265;-62
2023/02/03 07:13:09;;;;;;;3.43;1.40;;;10.00;68.50;;;;;;5027345;28;20203;-61
2023/02/03 07:15:35;;;;;;;1.30;1.20;;;9.90;70.00;;;;;;5028639;28;20225;-62
2023/02/03 07:18:00;;;;;;;1.87;1.40;;;9.80;70.90;;;;;;5025545;28;20212;-62
2023/02/03 07:20:27;;;;;;;1.90;1.27;;;9.70;70.00;;;;;;5029900;28;20721;-61
2023/02/03 07:22:57;;;;;;;2.90;1.43;;;9.70;70.40;;;;;;5028136;28;20220;-62
2023/02/03 07:25:23;;;;;;;2.00;1.30;;;9.80;70.50;;;;;;5026580;28;20475;-62
2023/02/03 07:27:49;;;;;;;2.90;1.40;;;9.80;69.60;;;;;;5022813;28;22599;-62
2023/02/03 07:30:15;;;;;;;1.00;1.00;;;9.90;69.70;;;;;;5031507;28;20470;-62
2023/02/03 07:32:40;;;;;;;2.93;1.23;;;10.00;67.90;;;;;;5022046;28;20594;-61
2023/02/03 07:35:07;;;;;;;1.37;1.27;;;10.10;67.70;;;;;;5025855;28;20942;-62
2023/02/03 07:37:33;;;;;;;4.20;1.37;;;10.00;67.60;;;;;;5026899;28;20271;-62
2023/02/03 07:39:58;;;;;;;3.60;1.23;;;10.20;67.20;;;;;;5025139;28;20447;-62
2023/02/03 07:42:24;;;;;;;1.10;1.00;;;10.10;66.70;;;;;;5029015;28;20230;-62
2023/02/03 07:44:49;;;;;;;1.93;1.00;;;9.80;68.10;;;;;;5027187;28;20264;-61
2023/02/03 07:47:15;;;;;;;2.03;1.50;;;9.80;68.50;;;;;;5019532;28;20197;-62
2023/02/03 07:49:41;;;;;;;1.67;1.10;;;9.80;69.00;;;;;;5022532;28;20700;-62
2023/02/03 07:52:07;;;;;;;1.10;1.10;;;10.00;67.70;;;;;;5023980;28;21707;-61
2023/02/03 07:54:33;;;;;;;1.37;1.10;;;10.10;67.20;;;;;;5028858;28;20439;-62
2023/02/03 07:56:58;;;;;;;4.50;1.20;;;9.80;68.10;;;;;;5031051;28;20217;-62
2023/02/03 07:59:24;;;;;;;2.30;1.27;;;10.10;68.40;;;;;;5028358;28;20193;-62
2023/02/03 08:01:49;;;;;;;2.20;1.00;;;10.10;66.50;;;;;;5031604;28;20201;-60
2023/02/03 08:04:16;;;;;;;2.43;1.63;;;9.80;68.90;;;;;;5031029;28;20585;-61
2023/02/03 08:06:42;;;;;;;1.23;1.13;;;9.80;69.20;;;;;;5029253;28;20192;-61
2023/02/03 08:09:08;;;;;;;1.53;1.27;;;9.70;69.20;;;;;;5031912;28;20455;-61
2023/02/03 08:11:33;;;;;;;1.80;1.10;;;9.90;69.20;;;;;;5033924;28;20469;-61
2023/02/03 08:13:59;;;;;;;3.53;1.60;;;10.10;67.50;;;;;;5026937;28;20198;-60
2023/02/03 08:16:25;;;;;;;1.43;1.33;;;10.00;68.90;;;;;;5031086;28;20197;-60
2023/02/03 08:18:51;;;;;;;1.63;1.53;;;10.20;67.90;;;;;;5030936;28;20438;-60
2023/02/03 08:21:16;;;;;;;6.60;2.03;;;10.20;67.80;;;;;;5029392;28;20189;-60
2023/02/03 08:23:42;;;;;;;1.53;1.43;;;10.20;67.70;;;;;;5026820;28;20685;-60
2023/02/03 08:26:07;;;;;;;2.40;1.60;;;10.20;67.80;;;;;;5029287;28;20209;-60
2023/02/03 08:28:33;;;;;;;1.87;1.47;;;10.30;67.60;;;;;;5031435;28;20231;-60
2023/02/03 08:30:59;;;;;;;2.77;1.83;;;10.10;67.30;;;;;;5031222;28;20248;-61
2023/02/03 08:33:25;;;;;;;1.77;1.57;;;10.00;67.80;;;;;;5031724;28;20451;-60
2023/02/03 08:35:50;;;;;;;2.60;1.97;;;10.00;68.40;;;;;;5030478;28;20609;-60
2023/02/03 08:38:16;;;;;;;1.73;1.50;;;9.90;69.50;;;;;;5032563;28;20197;-60
2023/02/03 08:40:42;;;;;;;1.83;1.33;;;9.90;70.00;;;;;;5029545;28;20204;-60
2023/02/03 08:43:08;;;;;;;2.73;1.80;;;10.00;69.00;;;;;;5030389;28;20472;-60
2023/02/03 08:45:33;;;;;;;2.30;1.77;;;10.10;69.20;;;;;;5031481;28;20196;-60
2023/02/03 08:47:59;;;;;;;4.27;2.20;;;10.10;69.30;;;;;;5030693;28;20197;-60
2023/02/03 08:50:25;;;;;;;2.00;1.73;;;10.20;69.80;;;;;;5027644;28;20197;-60
2023/02/03 08:52:50;;;;;;;2.30;1.60;;;10.20;69.90;;;;;;5022963;28;20258;-60
2023/02/03 08:55:16;;;;;;;1.97;1.60;;;10.10;69.40;;;;;;5026048;28;20200;-61
2023/02/03 08:57:41;;;;;;;1.70;1.60;;;10.10;69.80;;;;;;5030013;28;20197;-60
2023/02/03 09:00:09;;;;;;;2.37;1.40;;;10.20;69.30;;;;;;5030194;28;20201;-61
2023/02/03 09:02:35;;;;;;;2.33;1.27;;;10.10;70.00;;;;;;5029003;28;20242;-61
2023/02/03 09:05:00;;;;;;;3.53;1.80;;;10.00;69.80;;;;;;5029900;28;20447;-61
2023/02/03 09:07:26;;;;;;;3.80;2.10;;;10.20;70.20;;;;;;5028614;28;20197;-60
2023/02/03 09:09:52;;;;;;;1.77;1.23;;;10.10;69.50;;;;;;5029361;28;20522;-60
2023/02/03 09:12:17;;;;;;;1.80;1.50;;;10.30;69.40;;;;;;5030960;28;20450;-60
2023/02/03 09:14:43;;;;;;;3.20;1.77;;;10.20;69.50;;;;;;5030285;28;20665;-61
2023/02/03 09:17:09;;;;;;;2.10;1.83;;;10.10;70.00;;;;;;5029903;28;20300;-61
2023/02/03 09:19:35;;;;;;;3.00;1.70;;;10.40;69.80;;;;;;5031639;28;20216;-61
2023/02/03 09:22:01;;;;;;;2.67;1.67;;;10.20;69.40;;;;;;5031684;28;20444;-61
2023/02/03 09:24:27;;;;;;;3.17;1.83;;;10.10;70.40;;;;;;5027017;28;20703;-61
2023/02/03 09:26:52;;;;;;;4.20;1.37;;;10.20;70.10;;;;;;5035660;28;20197;-60
2023/02/03 09:29:18;;;;;;;2.17;1.60;;;10.20;70.40;;;;;;5030034;28;20284;-60
2023/02/03 09:31:45;;;;;;;3.33;1.40;;;10.20;70.70;;;;;;5034102;28;20645;-61
2023/02/03 09:34:11;;;;;;;2.73;2.43;;;10.30;70.40;;;;;;5027235;28;20201;-61
2023/02/03 09:36:37;;;;;;;2.53;2.00;;;10.20;70.40;;;;;;5026541;28;20460;-61
2023/02/03 09:39:03;;;;;;;2.63;1.87;;;10.40;70.50;;;;;;5026243;28;20208;-61
2023/02/03 09:41:43;;;;;;;3.80;1.57;;;10.60;69.60;;;;;;5026632;28;20216;-61
2023/02/03 09:44:11;;;;;;;6.23;2.50;;;10.40;69.60;;;;;;5027616;28;20514;-61
2023/02/03 09:46:47;;;;;;;2.90;2.03;;;10.50;69.60;;;;;;5030743;28;20538;-61
2023/02/03 09:49:49;;;;;;;1.97;1.70;;;10.60;69.70;;;;;;5028848;28;20472;-61
2023/02/03 09:52:19;;;;;;;3.03;1.90;;;10.50;69.90;;;;;;5027133;28;20541;-61
2023/02/03 09:55:12;;;;;;;6.13;1.57;;;10.70;69.50;;;;;;5022575;28;20476;-60
2023/02/03 09:57:50;;;;;;;2.47;2.00;;;10.80;69.30;;;;;;5026217;28;20455;-60
2023/02/03 10:00:21;;;;;;;1.80;1.33;;;10.70;68.90;;;;;;5030218;28;20613;-59
2023/02/03 10:03:25;;;;;;;1.63;1.53;;;10.90;68.80;;;;;;5027254;28;20468;-58
2023/02/03 10:06:06;;;;;;;4.23;1.97;;;10.70;68.80;;;;;;5023893;28;22233;-59
2023/02/03 10:09:00;;;;;;;2.33;1.90;;;10.90;68.60;;;;;;5028302;28;20812;-59
2023/02/03 10:11:37;;;;;;;2.90;1.27;;;11.00;68.90;;;;;;5026334;28;20547;-59
2023/02/03 10:14:34;;;;;;;2.80;1.60;;;10.90;69.00;;;;;;5028691;28;20862;-60
2023/02/03 10:17:10;;;;;;;9.43;1.47;;;11.10;68.40;;;;;;5021957;28;20448;-61
2023/02/03 10:19:49;;;;;;;1.60;1.17;;;10.90;67.80;;;;;;5028878;28;20448;-60
2023/02/03 10:22:19;;;;;;;2.30;1.20;;;11.00;68.00;;;;;;5021284;28;20448;-60
2023/02/03 10:25:07;;;;;;;1.50;1.17;;;11.00;68.40;;;;;;5025508;28;20494;-61
2023/02/03 10:27:36;;;;;;;5.60;1.83;;;11.20;68.10;;;;;;5020437;28;20451;-60
2023/02/03 10:30:21;;;;;;;1.97;1.30;;;11.20;67.20;;;;;;5021834;28;20787;-60
2023/02/03 10:33:08;;;;;;;2.13;1.13;;;11.20;66.80;;;;;;5025716;28;20487;-60
2023/02/03 10:35:58;;;;;;;4.73;1.40;;;11.00;67.00;;;;;;5027291;28;20452;-60
2023/02/03 10:38:44;;;;;;;1.97;1.77;;;11.00;67.90;;;;;;5022836;28;20506;-60
2023/02/03 10:41:10;;;;;;;2.50;1.50;;;11.10;67.80;;;;;;5021760;28;20497;-60
2023/02/03 10:43:50;;;;;;;2.50;1.30;;;11.00;67.60;;;;;;5024061;28;20484;-60
2023/02/03 10:46:36;;;;;;;2.60;1.17;;;11.00;67.90;;;;;;5015792;28;20189;-60
2023/02/03 10:49:02;;;;;;;5.33;1.40;;;11.00;67.90;;;;;;5025180;28;20546;-60
2023/02/03 10:51:37;;;;;;;1.80;1.63;;;11.10;68.10;;;;;;5025605;28;21054;-60
2023/02/03 10:54:04;;;;;;;3.47;1.30;;;11.10;67.90;;;;;;5029250;28;20185;-60
2023/02/03 10:56:34;;;;;;;1.00;0.90;;;11.30;68.10;;;;;;5022345;28;20524;-60
2023/02/03 10:59:01;;;;;;;1.37;1.13;;;11.50;67.70;;;;;;5021541;28;20452;-60
2023/02/03 11:01:41;;;;;;;2.93;1.40;;;11.30;66.90;;;;;;5021237;28;20439;-60
2023/02/03 11:04:32;;;;;;;3.47;1.20;;;11.20;67.50;;;;;;5027387;28;20527;-60
2023/02/03 11:07:01;;;;;;;2.40;1.40;;;11.00;68.30;;;;;;5024749;28;20486;-60
2023/02/03 11:09:39;;;;;;;1.20;1.10;;;11.20;69.20;;;;;;5030012;28;20504;-60
2023/02/03 11:12:18;;;;;;;5.50;1.50;;;11.20;67.90;;;;;;5027563;28;20444;-60
2023/02/03 11:14:46;;;;;;;1.50;0.90;;;11.50;67.90;;;;;;5029019;28;20447;-60
2023/02/03 11:17:15;;;;;;;1.60;1.10;;;11.50;67.30;;;;;;5026827;28;20447;-60
2023/02/03 11:19:46;;;;;;;1.37;1.20;;;11.50;67.10;;;;;;5027130;28;20477;-60
2023/02/03 11:22:25;;;;;;;1.30;1.00;;;11.60;67.00;;;;;;5023941;28;20798;-60
2023/02/03 11:24:51;;;;;;;2.40;1.00;;;11.50;67.20;;;;;;5031233;28;20482;-60
2023/02/03 11:27:18;;;;;;;1.20;1.10;;;11.60;66.90;;;;;;5029879;28;20447;-60
2023/02/03 11:29:47;;;;;;;1.20;1.10;;;11.70;66.10;;;;;;5027913;28;20208;-60
2023/02/03 11:32:20;;;;;;;1.70;1.20;;;12.00;65.70;;;;;;5023329;28;20472;-60
2023/02/03 11:34:57;;;;;;;1.27;1.10;;;12.10;63.60;;;;;;5027735;28;21090;-60
2023/02/03 11:37:33;;;;;;;1.73;1.10;;;11.50;64.40;;;;;;5029990;28;20943;-60
2023/02/03 11:40:11;;;;;;;2.13;1.10;;;11.50;65.90;;;;;;5032193;28;20443;-60
2023/02/03 11:42:42;;;;;;;1.70;0.90;;;11.50;65.80;;;;;;5029945;28;20926;-60
2023/02/03 11:45:25;;;;;;;0.87;0.87;;;11.50;65.30;;;;;;5030000;28;20810;-60
2023/02/03 11:47:55;;;;;;;1.00;0.90;;;11.40;65.40;;;;;;5032345;28;20931;-60
2023/02/03 11:50:43;;;;;;;1.00;0.90;;;11.50;65.50;;;;;;5031332;28;20475;-60
2023/02/03 11:53:12;;;;;;;1.83;1.00;;;11.60;65.60;;;;;;5031214;28;20526;-60
2023/02/03 11:56:02;;;;;;;1.93;0.83;;;11.70;65.20;;;;;;5029487;28;20451;-60
2023/02/03 11:58:47;;;;;;;0.83;0.83;;;11.90;64.70;;;;;;5021970;28;20450;-60
2023/02/03 12:01:34;;;;;;;0.90;0.70;;;12.00;64.10;;;;;;5031447;28;20444;-60
2023/02/03 12:04:36;;;;;;;1.03;0.90;;;11.80;63.10;;;;;;5036163;28;21267;-60
2023/02/03 12:07:16;;;;;;;1.67;1.20;;;11.50;63.80;;;;;;5022361;28;20454;-60
2023/02/03 12:10:02;;;;;;;1.27;1.10;;;11.50;64.50;;;;;;5027020;28;20483;-60
2023/02/03 12:12:39;;;;;;;0.83;0.83;;;11.60;63.90;;;;;;5026707;28;20478;-60
2023/02/03 12:15:45;;;;;;;1.10;1.00;;;11.70;63.20;;;;;;5021727;28;20467;-60
2023/02/03 12:18:19;;;;;;;1.10;0.90;;;11.50;62.50;;;;;;5032504;28;20935;-60
2023/02/03 12:20:50;;;;;;;1.27;1.00;;;11.80;62.70;;;;;;5031101;28;20936;-60
2023/02/03 12:23:27;;;;;;;1.07;0.87;;;11.80;62.40;;;;;;5026621;28;20546;-60
2023/02/03 12:26:11;;;;;;;1.40;1.30;;;12.10;62.10;;;;;;5026815;28;20454;-60
2023/02/03 12:29:10;;;;;;;1.33;1.23;;;12.20;61.20;;;;;;5025207;28;20440;-60
2023/02/03 12:31:44;;;;;;;1.50;1.40;;;12.40;60.80;;;;;;5030860;28;20486;-60
2023/02/03 12:34:21;;;;;;;2.20;1.50;;;12.50;60.70;;;;;;5022975;28;20450;-60
2023/02/03 12:37:05;;;;;;;2.07;1.80;;;12.50;60.70;;;;;;5027508;28;20522;-61
2023/02/03 12:39:36;;;;;;;1.63;1.47;;;12.40;59.90;;;;;;5025649;28;20626;-60
2023/02/03 12:42:16;;;;;;;1.43;0.90;;;12.40;60.10;;;;;;5028944;28;20440;-60
2023/02/03 12:45:02;;;;;;;1.43;1.13;;;12.00;59.90;;;;;;5024476;28;20486;-60
2023/02/03 12:47:43;;;;;;;3.40;2.60;;;12.10;60.20;;;;;;5029978;28;20464;-60
2023/02/03 12:50:34;;;;;;;1.10;1.00;;;12.00;60.20;;;;;;5022181;28;20468;-60
2023/02/03 12:53:08;;;;;;;1.40;1.00;;;11.90;59.80;;;;;;5027204;28;20573;-60
2023/02/03 12:55:54;;;;;;;1.17;1.07;;;11.70;60.30;;;;;;5032061;28;20415;-60
2023/02/03 12:58:29;;;;;;;1.30;0.93;;;11.70;60.40;;;;;;5030644;28;20466;-60
2023/02/03 13:01:14;;;;;;;1.23;1.10;;;11.80;60.10;;;;;;5027960;28;20447;-60
2023/02/03 13:03:55;;;;;;;1.07;1.00;;;11.80;60.20;;;;;;5021163;28;20506;-60
2023/02/03 13:06:44;;;;;;;1.93;1.30;;;11.70;59.70;;;;;;5026195;28;20475;-60
2023/02/03 13:09:34;;;;;;;0.80;0.70;;;11.60;59.60;;;;;;5027838;28;20500;-60
2023/02/03 13:12:19;;;;;;;1.13;0.90;;;11.60;59.90;;;;;;5024356;28;20981;-60